Time;durP1;ratioP1;P1;durP2;ratioP2;P2;SDS_P1;SDS_P2;PMS_P1;PMS_P2;Temp;Humidity;BMP_temperature;BMP_pressure;BME280_temperature;BME280_humidity;BME280_pressure;Samples;Min_cycle;Max_cycle;Signal;HPM_P1;HPM_P2
2022/01/21 00:02:06;;;;;;;14.67;1.03;;;2.40;99.90;;;;;;4779362;29;20058;-82
2022/01/21 00:05:18;;;;;;;9.47;1.07;;;2.30;99.90;;;;;;4761063;30;20064;-86
2022/01/21 00:16:40;;;;;;;;;;;;;;;;;;;;;
2022/01/21 00:37:33;;;;;;;3.97;0.53;;;1.70;99.90;;;;;;4826375;29;20527;-84
2022/01/21 00:40:02;;;;;;;7.77;0.60;;;1.70;99.90;;;;;;4831844;29;20036;-83
2022/01/21 00:45:40;;;;;;;9.80;0.80;;;1.70;99.90;;;;;;4847687;29;20037;-83
2022/01/21 00:48:45;;;;;;;8.85;0.80;;;1.70;99.90;;;;;;4862216;29;20052;-82
2022/01/21 00:51:49;;;;;;;8.73;0.90;;;1.80;99.90;;;;;;4857450;29;20063;-82
2022/01/21 00:54:24;;;;;;;10.83;1.20;;;1.80;99.90;;;;;;4859617;29;20048;-82
2022/01/21 00:57:03;;;;;;;6.77;0.90;;;1.90;99.90;;;;;;4865481;29;20028;-87
2022/01/21 00:59:52;;;;;;;11.23;0.90;;;1.90;99.90;;;;;;4845309;29;20513;-88
2022/01/21 01:19:52;;;;;;;9.93;1.00;;;1.70;99.90;;;;;;4879096;29;20112;-83
2022/01/21 01:20:17;;;;;;;10.87;0.90;;;1.50;99.90;;;;;;4869227;29;20037;-83
2022/01/21 01:23:08;;;;;;;12.03;1.30;;;1.60;99.90;;;;;;4847861;29;20033;-80
2022/01/21 01:29:31;;;;;;;8.67;0.80;;;1.60;99.90;;;;;;4865594;29;20041;-87
2022/01/21 01:32:14;;;;;;;10.93;0.90;;;1.60;99.90;;;;;;4832254;29;20401;-87
2022/01/21 01:34:41;;;;;;;10.40;0.93;;;1.70;99.90;;;;;;4849985;29;20493;-84
2022/01/21 01:40:33;;;;;;;11.23;1.20;;;1.80;99.90;;;;;;4815923;29;20403;-85
2022/01/21 01:51:23;;;;;;;17.27;2.73;;;1.90;99.90;;;;;;4826770;29;20515;-83
2022/01/21 01:53:59;;;;;;;12.80;1.83;;;1.90;99.90;;;;;;4830134;29;20179;-86
2022/01/21 01:56:31;;;;;;;16.60;1.90;;;1.90;99.90;;;;;;4799504;29;20150;-84
2022/01/21 01:59:03;;;;;;;20.10;2.10;;;2.00;99.90;;;;;;4829585;29;20046;-84
2022/01/21 02:01:30;;;;;;;9.00;1.00;;;2.00;99.90;;;;;;4823025;29;20042;-84
2022/01/21 02:03:57;;;;;;;8.07;1.23;;;2.10;99.90;;;;;;4807870;29;20033;-89
2022/01/21 02:06:23;;;;;;;11.70;1.50;;;2.10;99.90;;;;;;4804159;29;20057;-86
2022/01/21 02:09:03;;;;;;;14.83;1.23;;;2.20;99.90;;;;;;4833422;29;20375;-86
2022/01/21 02:11:46;;;;;;;;;;;;;;;;;;;;;
2022/01/21 02:15:00;;;;;;;14.20;1.20;;;2.20;99.90;;;;;;4861653;29;19979;-86
2022/01/21 02:22:15;;;;;;;11.18;1.02;;;2.20;99.90;;;;;;4841924;29;20048;-86
2022/01/21 02:25:30;;;;;;;11.43;1.10;;;2.10;99.90;;;;;;4844894;29;20061;-86
2022/01/21 02:28:26;;;;;;;12.23;1.20;;;2.00;99.90;;;;;;4824120;29;20061;-85
2022/01/21 02:30:59;;;;;;;15.47;1.40;;;1.90;99.90;;;;;;4843437;29;20064;-85
2022/01/21 02:33:55;;;;;;;12.23;1.27;;;1.80;99.90;;;;;;4871305;29;20038;-85
2022/01/21 02:36:29;;;;;;;8.00;1.20;;;1.80;99.90;;;;;;4828606;29;20044;-86
2022/01/21 02:39:08;;;;;;;8.17;1.10;;;1.70;99.90;;;;;;4842729;29;20390;-86
2022/01/21 02:41:56;;;;;;;8.53;1.00;;;1.60;99.90;;;;;;4815484;29;20040;-85
2022/01/21 02:44:26;;;;;;;4.43;0.70;;;1.60;99.90;;;;;;4845371;29;20061;-86
2022/01/21 02:47:04;;;;;;;5.70;1.00;;;1.50;99.90;;;;;;4841660;29;20064;-86
2022/01/21 02:50:47;;;;;;;11.50;1.10;;;1.50;99.90;;;;;;4837902;29;20485;-86
2022/01/21 02:57:31;;;;;;;10.00;0.93;;;1.40;99.90;;;;;;4886698;29;20045;-86
2022/01/21 03:01:32;;;;;;;9.50;0.87;;;1.30;99.90;;;;;;4868529;29;20036;-85
2022/01/21 03:07:45;;;;;;;7.23;1.00;;;1.30;99.90;;;;;;4873562;29;20053;-86
2022/01/21 03:10:19;;;;;;;15.00;1.10;;;1.20;99.90;;;;;;4865782;29;20056;-85
2022/01/21 03:13:14;;;;;;;;;;;1.20;99.90;;;;;;4855292;29;20045;-85
2022/01/21 03:16:35;;;;;;;7.33;0.70;;;1.20;99.90;;;;;;4814563;29;19932;-86
2022/01/21 03:19:06;;;;;;;8.57;0.80;;;1.20;99.90;;;;;;4813357;29;20050;-85
2022/01/21 03:21:37;;;;;;;7.87;0.70;;;1.20;99.90;;;;;;4808971;29;20058;-85
2022/01/21 03:24:27;;;;;;;8.40;0.90;;;1.20;99.90;;;;;;4794815;29;20053;-86
2022/01/21 03:27:54;;;;;;;4.93;0.80;;;1.20;99.90;;;;;;4835563;29;20045;-86
2022/01/21 03:30:54;;;;;;;14.97;0.77;;;1.20;99.90;;;;;;4850700;29;20064;-84
2022/01/21 03:34:14;;;;;;;6.33;0.80;;;1.20;99.90;;;;;;4871541;29;20038;-86
2022/01/21 03:41:14;;;;;;;7.67;0.93;;;1.30;99.90;;;;;;4829330;29;20046;-84
2022/01/21 03:44:07;;;;;;;17.00;2.17;;;1.30;99.90;;;;;;4855093;29;20060;-85
2022/01/21 03:46:48;;;;;;;5.33;0.67;;;1.30;99.90;;;;;;4840593;29;20050;-85
2022/01/21 03:53:07;;;;;;;9.97;1.27;;;1.30;99.90;;;;;;4847349;29;20042;-86
2022/01/21 03:55:58;;;;;;;5.70;0.95;;;1.30;99.90;;;;;;4822293;29;20054;-85
2022/01/21 03:58:58;;;;;;;7.27;0.93;;;1.30;99.90;;;;;;4821856;29;20093;-85
2022/01/21 04:02:00;;;;;;;11.27;1.40;;;1.20;99.90;;;;;;4808220;29;20049;-83
2022/01/21 04:04:50;;;;;;;10.90;0.70;;;1.20;99.90;;;;;;4799699;29;20061;-83
2022/01/21 04:11:21;;;;;;;14.30;1.00;;;1.10;99.90;;;;;;4761447;30;20043;-82
2022/01/21 04:14:20;;;;;;;12.87;1.50;;;1.10;99.90;;;;;;4751679;30;20063;-82
2022/01/21 04:17:35;;;;;;;;;;;;;;;;;;;;;
2022/01/21 04:20:36;;;;;;;10.80;1.00;;;1.00;99.90;;;;;;4817392;29;20068;-83
2022/01/21 04:23:39;;;;;;;12.73;0.80;;;1.00;99.90;;;;;;4827188;29;20057;-82
2022/01/21 04:26:36;;;;;;;9.20;0.70;;;1.10;99.90;;;;;;4819580;29;20057;-87
2022/01/21 04:29:26;;;;;;;13.40;1.17;;;1.00;99.90;;;;;;4833466;29;20478;-87
2022/01/21 04:32:28;;;;;;;7.70;1.00;;;1.00;99.90;;;;;;4827970;29;20049;-87
2022/01/21 04:35:06;;;;;;;10.37;1.20;;;1.00;99.90;;;;;;4833627;29;20052;-87
2022/01/21 04:38:07;;;;;;;7.63;0.80;;;1.00;99.90;;;;;;4838353;29;20049;-85
2022/01/21 04:52:45;;;;;;;8.13;0.90;;;1.00;99.90;;;;;;4876107;29;20080;-86
2022/01/21 04:55:35;;;;;;;5.97;0.73;;;1.00;99.90;;;;;;4850815;29;20045;-86
2022/01/21 04:58:23;;;;;;;12.13;1.17;;;1.00;99.90;;;;;;4853725;29;20077;-85
2022/01/21 05:01:06;;;;;;;5.50;0.70;;;1.00;99.90;;;;;;4873263;29;20056;-85
2022/01/21 05:03:46;;;;;;;9.97;0.70;;;1.00;99.90;;;;;;4853573;29;20041;-82
2022/01/21 05:06:24;;;;;;;6.83;0.90;;;1.00;99.90;;;;;;4846627;29;20064;-82
2022/01/21 05:08:54;;;;;;;6.90;0.83;;;1.00;99.90;;;;;;4850172;29;20056;-82
2022/01/21 05:11:38;;;;;;;7.83;1.03;;;1.00;99.90;;;;;;4831592;29;20228;-82
2022/01/21 05:14:23;;;;;;;11.83;0.97;;;1.00;99.90;;;;;;4846680;29;20037;-83
2022/01/21 05:17:09;;;;;;;6.83;0.93;;;1.00;99.90;;;;;;4820216;29;20045;-83
2022/01/21 05:19:47;;;;;;;9.47;0.90;;;1.00;99.90;;;;;;4833529;29;20427;-82
2022/01/21 05:23:10;;;;;;;8.90;1.00;;;1.00;99.90;;;;;;4837000;29;20047;-83
2022/01/21 05:25:49;;;;;;;9.67;0.93;;;1.00;99.90;;;;;;4850759;29;20462;-83
2022/01/21 05:28:35;;;;;;;9.20;0.80;;;1.00;99.90;;;;;;4855216;29;20196;-83
2022/01/21 05:31:42;;;;;;;7.77;0.67;;;1.00;99.90;;;;;;4834742;29;20544;-83
2022/01/21 05:34:50;;;;;;;3.87;0.80;;;1.00;99.90;;;;;;4837693;29;20542;-83
2022/01/21 05:37:43;;;;;;;7.83;1.13;;;1.00;99.90;;;;;;4810583;29;20054;-83
2022/01/21 05:40:46;;;;;;;11.03;1.07;;;1.00;99.90;;;;;;4834984;29;20052;-83
2022/01/21 05:44:00;;;;;;;3.03;0.60;;;1.00;99.90;;;;;;4860415;29;20053;-83
2022/01/21 05:50:03;;;;;;;8.33;0.50;;;0.90;99.90;;;;;;4848513;29;20053;-84
2022/01/21 05:53:11;;;;;;;8.30;0.83;;;0.90;99.90;;;;;;4847659;29;20045;-83
2022/01/21 05:56:06;;;;;;;8.00;0.67;;;0.90;99.90;;;;;;4863076;29;20034;-83
2022/01/21 05:58:44;;;;;;;12.00;1.00;;;0.90;99.90;;;;;;4821820;29;20038;-83
2022/01/21 06:01:26;;;;;;;9.70;0.73;;;0.90;99.90;;;;;;4826457;29;20580;-83
2022/01/21 06:03:57;;;;;;;5.95;0.80;;;0.80;99.90;;;;;;4862011;29;20037;-82
2022/01/21 06:06:26;;;;;;;5.20;0.50;;;0.90;99.90;;;;;;4860317;29;20076;-83
2022/01/21 06:08:56;;;;;;;9.33;0.90;;;0.90;99.90;;;;;;4846822;29;20033;-83
2022/01/21 06:11:33;;;;;;;10.80;1.93;;;0.90;99.90;;;;;;4864396;29;20044;-83
2022/01/21 06:14:15;;;;;;;9.73;1.13;;;1.00;99.90;;;;;;4852107;29;20045;-83
2022/01/21 06:16:45;;;;;;;6.80;0.70;;;1.00;99.90;;;;;;4844089;29;20037;-82
2022/01/21 06:19:14;;;;;;;9.07;0.70;;;1.00;99.90;;;;;;4861818;29;20037;-83
2022/01/21 06:21:44;;;;;;;7.97;0.90;;;1.00;99.90;;;;;;4861509;29;20040;-83
2022/01/21 06:24:15;;;;;;;4.53;0.40;;;1.00;99.90;;;;;;4847177;29;20430;-82
2022/01/21 06:26:45;;;;;;;4.40;0.53;;;1.00;99.90;;;;;;4832206;29;20037;-82
2022/01/21 06:29:12;;;;;;;6.60;0.80;;;1.10;99.90;;;;;;4845041;29;20505;-82
2022/01/21 06:31:38;;;;;;;10.27;1.07;;;1.10;99.90;;;;;;4864418;29;20037;-78
2022/01/21 06:34:05;;;;;;;7.63;0.70;;;1.10;99.90;;;;;;4871226;29;20065;-82
2022/01/21 06:36:32;;;;;;;12.77;1.50;;;1.10;99.90;;;;;;4868483;29;20048;-81
2022/01/21 06:39:05;;;;;;;9.63;1.27;;;1.20;99.90;;;;;;4849367;29;20407;-82
2022/01/21 06:41:32;;;;;;;6.97;0.93;;;1.30;99.90;;;;;;4868363;29;20378;-81
2022/01/21 06:44:02;;;;;;;10.23;0.97;;;1.40;99.90;;;;;;4854138;29;20037;-82
2022/01/21 06:46:32;;;;;;;9.47;1.27;;;1.50;99.90;;;;;;4857770;29;20047;-81
2022/01/21 06:49:08;;;;;;;10.03;1.37;;;1.50;99.90;;;;;;4864172;29;20048;-81
2022/01/21 06:51:35;;;;;;;12.40;1.73;;;1.60;99.90;;;;;;4854948;29;20036;-81
2022/01/21 06:54:01;;;;;;;9.97;1.43;;;1.60;99.90;;;;;;4850882;29;20500;-82
2022/01/21 06:56:36;;;;;;;5.53;1.10;;;1.70;99.90;;;;;;4863588;29;20036;-83
2022/01/21 06:59:03;;;;;;;8.40;1.23;;;1.70;99.90;;;;;;4867651;29;20473;-81
2022/01/21 07:01:44;;;;;;;10.10;1.60;;;1.80;99.90;;;;;;4870172;29;20044;-82
2022/01/21 07:07:49;;;;;;;9.60;0.80;;;1.90;99.90;;;;;;4879457;29;20053;-85
2022/01/21 07:10:16;;;;;;;13.03;0.80;;;1.80;99.90;;;;;;4840467;29;20052;-85
2022/01/21 07:13:05;;;;;;;13.30;1.63;;;1.80;99.90;;;;;;4851064;29;20045;-85
2022/01/21 07:16:05;;;;;;;8.17;1.00;;;1.80;99.90;;;;;;4867942;29;20049;-85
2022/01/21 07:23:20;;;;;;;11.70;1.00;;;1.90;99.90;;;;;;4837728;29;20044;-85
2022/01/21 07:30:49;;;;;;;10.73;1.00;;;2.00;99.90;;;;;;4845863;29;20045;-85
2022/01/21 07:34:26;;;;;;;;;;;;;;;;;;;;;
2022/01/21 07:46:44;;;;;;;8.77;1.10;;;1.80;99.90;;;;;;4861714;29;20041;-86
2022/01/21 07:50:08;;;;;;;8.97;1.63;;;1.90;99.90;;;;;;4856735;29;20614;-85
2022/01/21 08:01:46;;;;;;;4.53;1.00;;;1.80;99.90;;;;;;4824512;29;20050;-86
2022/01/21 08:14:53;;;;;;;8.37;1.23;;;1.80;99.90;;;;;;4806953;29;20130;-86
2022/01/21 08:22:34;;;;;;;6.50;0.60;;;1.70;99.90;;;;;;4736999;30;20051;-86
2022/01/21 08:29:06;;;;;;;8.60;0.90;;;1.90;99.90;;;;;;4718292;30;20452;-88
2022/01/21 08:33:33;;;;;;;10.77;1.53;;;1.90;99.90;;;;;;4723231;30;20160;-85
2022/01/21 08:37:02;;;;;;;9.38;1.00;;;2.00;99.90;;;;;;4730761;30;20049;-89
2022/01/21 08:41:00;;;;;;;15.27;0.97;;;2.20;99.90;;;;;;4745252;30;20060;-85
2022/01/21 08:44:38;;;;;;;9.53;2.20;;;2.30;99.90;;;;;;4706039;30;20063;-85
2022/01/21 08:47:51;;;;;;;9.17;1.30;;;2.30;99.90;;;;;;4745387;30;20067;-87
2022/01/21 08:57:57;;;;;;;9.83;1.30;;;2.60;99.90;;;;;;4770817;30;20160;-89
2022/01/21 09:01:28;;;;;;;7.37;0.97;;;2.70;99.90;;;;;;4810110;29;20045;-84
2022/01/21 09:10:10;;;;;;;8.90;0.93;;;2.90;99.90;;;;;;4823452;29;20046;-88
2022/01/21 09:13:16;;;;;;;9.53;1.20;;;3.00;99.90;;;;;;4817365;29;20045;-88
2022/01/21 09:30:05;;;;;;;;;;;;;;;;;;;;;
2022/01/21 09:33:19;;;;;;;8.05;0.93;;;4.10;99.90;;;;;;4674063;30;20049;-88
2022/01/21 09:41:19;;;;;;;13.10;1.30;;;4.40;99.90;;;;;;4689013;30;20145;-88
2022/01/21 09:44:38;;;;;;;13.35;2.08;;;4.50;99.90;;;;;;4761881;30;20056;-89
2022/01/21 09:55:22;;;;;;;11.77;1.50;;;4.20;99.90;;;;;;4840742;29;20057;-86
2022/01/21 09:58:08;;;;;;;15.43;3.33;;;4.40;99.90;;;;;;4850445;29;20044;-88
2022/01/21 10:04:51;;;;;;;12.80;1.42;;;4.50;99.90;;;;;;4826204;29;20042;-86
2022/01/21 10:19:30;;;;;;;12.75;1.10;;;5.60;99.90;;;;;;4876516;29;20049;-86
2022/01/21 10:22:38;;;;;;;10.57;1.17;;;5.90;99.90;;;;;;4856576;29;20066;-87
2022/01/21 10:25:22;;;;;;;11.00;1.38;;;6.10;99.90;;;;;;4841860;29;20052;-87
2022/01/21 10:28:21;;;;;;;10.63;1.77;;;6.40;99.90;;;;;;4852252;29;20037;-87
2022/01/21 10:35:56;;;;;;;10.20;1.15;;;7.20;99.90;;;;;;4848809;29;20040;-87
2022/01/21 10:42:04;;;;;;;7.55;0.90;;;7.10;99.90;;;;;;4881147;29;20044;-86
2022/01/21 10:44:34;;;;;;;10.00;1.30;;;7.20;99.90;;;;;;4863771;29;20045;-82
2022/01/21 10:47:34;;;;;;;9.30;1.48;;;7.40;99.90;;;;;;4870385;29;20060;-88
2022/01/21 10:50:18;;;;;;;11.95;1.23;;;7.50;99.90;;;;;;4848566;29;20049;-88
2022/01/21 10:53:32;;;;;;;15.13;1.77;;;7.60;99.90;;;;;;4881682;29;20061;-89
2022/01/21 10:56:10;;;;;;;10.90;0.90;;;7.70;99.90;;;;;;4865111;29;20048;-85
2022/01/21 10:58:40;;;;;;;13.13;1.00;;;7.60;99.90;;;;;;4862998;29;20595;-82
2022/01/21 11:01:30;;;;;;;14.02;1.63;;;7.60;99.90;;;;;;4868485;29;20075;-81
2022/01/21 11:04:05;;;;;;;11.85;2.05;;;7.50;99.90;;;;;;4871674;29;20044;-81
2022/01/21 11:06:45;;;;;;;10.75;1.17;;;7.40;99.90;;;;;;4863576;29;20716;-79
2022/01/21 11:09:23;;;;;;;12.40;1.92;;;7.30;99.90;;;;;;4855964;29;20072;-78
2022/01/21 11:12:14;;;;;;;24.67;9.57;;;7.30;99.90;;;;;;4866834;29;20393;-78
2022/01/21 11:15:06;;;;;;;13.38;2.28;;;7.30;99.90;;;;;;4849872;29;20040;-79
2022/01/21 11:17:35;;;;;;;10.25;1.50;;;7.30;99.90;;;;;;4867271;29;20052;-78
2022/01/21 11:20:15;;;;;;;10.00;1.10;;;7.20;99.90;;;;;;4865139;29;20048;-79
2022/01/21 11:23:02;;;;;;;11.18;1.55;;;7.20;99.90;;;;;;4866072;29;20045;-81
2022/01/21 11:25:53;;;;;;;12.77;1.20;;;7.10;99.90;;;;;;4862841;29;20478;-80
2022/01/21 11:28:26;;;;;;;14.45;1.95;;;7.00;99.90;;;;;;4879867;29;20127;-80
2022/01/21 11:30:57;;;;;;;19.05;1.92;;;6.90;99.90;;;;;;4834777;29;20044;-80
2022/01/21 11:33:23;;;;;;;15.45;1.70;;;6.80;99.90;;;;;;4846532;29;20046;-81
2022/01/21 11:35:53;;;;;;;5.63;1.10;;;6.80;99.90;;;;;;4863097;29;20036;-79
2022/01/21 11:38:53;;;;;;;13.52;1.30;;;6.90;99.90;;;;;;4859010;29;20045;-84
2022/01/21 11:41:24;;;;;;;10.23;1.45;;;7.00;99.90;;;;;;4854720;29;20516;-84
2022/01/21 11:43:52;;;;;;;14.52;1.85;;;7.10;99.90;;;;;;4846049;29;20045;-82
2022/01/21 11:46:58;;;;;;;;;;;;;;;;;;;;;
2022/01/21 11:50:12;;;;;;;13.18;2.35;;;7.00;99.90;;;;;;4867997;29;20067;-82
2022/01/21 11:52:46;;;;;;;9.60;1.38;;;6.90;99.90;;;;;;4866293;29;20041;-85
2022/01/21 11:55:37;;;;;;;8.40;1.20;;;6.90;99.90;;;;;;4845933;29;20029;-82
2022/01/21 11:58:10;;;;;;;12.85;2.60;;;6.80;99.90;;;;;;4848126;29;20488;-79
2022/01/21 12:00:48;;;;;;;;;;;6.70;99.90;;;;;;4881716;29;20037;-82
2022/01/21 12:04:04;;;;;;;13.00;2.95;;;6.70;99.90;;;;;;4848591;29;19918;-82
2022/01/21 12:06:54;;;;;;;12.38;1.50;;;6.60;99.90;;;;;;4836150;29;20874;-85
2022/01/21 12:09:59;;;;;;;8.90;1.35;;;6.60;99.90;;;;;;4864232;29;20048;-83
2022/01/21 12:12:56;;;;;;;9.25;1.30;;;6.70;99.90;;;;;;4863902;29;20056;-85
2022/01/21 12:18:39;;;;;;;13.63;1.58;;;6.70;99.90;;;;;;4882697;29;20048;-84
2022/01/21 12:21:34;;;;;;;10.57;1.35;;;6.80;99.90;;;;;;4870904;29;20045;-84
2022/01/21 12:24:47;;;;;;;13.25;1.10;;;6.80;99.90;;;;;;4855168;29;20048;-86
2022/01/21 12:27:47;;;;;;;11.05;1.27;;;6.90;99.90;;;;;;4867361;29;20497;-81
2022/01/21 12:30:34;;;;;;;11.40;1.88;;;7.10;99.90;;;;;;4859239;29;20040;-80
2022/01/21 12:33:48;;;;;;;14.82;1.55;;;7.10;99.90;;;;;;4863393;29;20031;-82
2022/01/21 12:36:48;;;;;;;12.63;1.83;;;7.20;99.90;;;;;;4853370;29;20045;-83
2022/01/21 12:42:59;;;;;;;8.80;1.23;;;7.20;99.90;;;;;;4863143;29;20040;-87
2022/01/21 12:46:14;;;;;;;9.73;1.20;;;7.30;99.90;;;;;;4864255;29;20039;-86
2022/01/21 12:57:03;;;;;;;17.08;1.92;;;7.30;99.90;;;;;;4817826;29;20172;-80
2022/01/21 13:00:08;;;;;;;17.63;2.35;;;7.30;99.90;;;;;;4815117;29;20037;-83
2022/01/21 13:02:55;;;;;;;9.55;2.38;;;7.40;99.90;;;;;;4835342;29;20577;-82
2022/01/21 13:05:45;;;;;;;15.95;1.60;;;7.40;99.90;;;;;;4833741;29;20061;-82
2022/01/21 13:08:50;;;;;;;15.45;1.60;;;7.40;99.90;;;;;;4796428;29;20073;-81
2022/01/21 13:11:25;;;;;;;17.27;1.42;;;7.40;99.90;;;;;;4797311;29;20053;-81
2022/01/21 13:17:18;;;;;;;17.52;1.73;;;7.50;99.90;;;;;;4835529;29;20045;-82
2022/01/21 13:20:30;;;;;;;12.77;1.30;;;7.50;99.90;;;;;;4866417;29;20044;-82
2022/01/21 13:23:09;;;;;;;18.08;1.83;;;7.50;99.90;;;;;;4849900;29;20045;-82
2022/01/21 13:25:45;;;;;;;12.48;1.38;;;7.50;99.90;;;;;;4862140;29;20059;-82
2022/01/21 13:28:21;;;;;;;10.27;1.58;;;7.40;99.90;;;;;;4849022;29;20041;-82
2022/01/21 13:31:19;;;;;;;12.18;1.00;;;7.40;99.90;;;;;;4846729;29;20493;-82
2022/01/21 13:34:56;;;;;;;13.20;1.55;;;7.40;99.90;;;;;;4859590;29;20036;-84
2022/01/21 13:38:12;;;;;;;16.58;1.92;;;7.40;99.90;;;;;;4843354;29;20424;-81
2022/01/21 13:40:53;;;;;;;18.23;2.33;;;7.40;99.90;;;;;;4843195;29;20032;-79
2022/01/21 13:48:54;;;;;;;11.95;1.38;;;7.50;99.90;;;;;;4879747;29;20045;-83
2022/01/21 13:51:23;;;;;;;11.82;1.52;;;7.40;99.90;;;;;;4831305;29;20053;-88
2022/01/21 13:54:23;;;;;;;17.00;1.90;;;7.40;99.90;;;;;;4846881;29;20049;-86
2022/01/21 13:56:49;;;;;;;9.68;1.25;;;7.40;99.90;;;;;;4822422;29;20049;-87
2022/01/21 14:04:50;;;;;;;;;;;;;;;;;;;;;
2022/01/21 14:08:08;;;;;;;16.38;1.65;;;7.40;99.90;;;;;;4845882;29;20068;-88
2022/01/21 14:11:27;;;;;;;9.63;1.42;;;7.40;99.90;;;;;;4857559;29;20041;-88
2022/01/21 14:14:30;;;;;;;15.25;1.70;;;7.40;99.90;;;;;;4854876;29;20506;-86
2022/01/21 14:17:44;;;;;;;12.02;1.33;;;7.40;99.90;;;;;;4815085;29;20507;-90
2022/01/21 14:21:58;;;;;;;11.60;1.13;;;7.40;99.90;;;;;;4837797;29;20130;-89
2022/01/21 14:25:12;;;;;;;11.65;1.35;;;7.40;99.90;;;;;;4819870;29;20077;-79
2022/01/21 14:27:52;;;;;;;11.25;1.73;;;7.30;99.90;;;;;;4813596;29;20370;-80
2022/01/21 14:30:39;;;;;;;7.47;0.90;;;7.20;99.90;;;;;;4845757;29;20041;-79
2022/01/21 14:33:13;;;;;;;16.90;1.50;;;7.20;99.90;;;;;;4856574;29;20053;-81
2022/01/21 14:35:45;;;;;;;12.15;1.35;;;7.20;99.90;;;;;;4856406;29;20045;-81
2022/01/21 14:38:37;;;;;;;8.07;1.20;;;7.20;99.90;;;;;;4849393;29;20501;-85
2022/01/21 14:45:17;;;;;;;9.55;1.27;;;7.10;99.90;;;;;;4841232;29;20127;-88
2022/01/21 14:50:45;;;;;;;8.65;1.13;;;7.10;99.90;;;;;;4816257;29;20057;-80
2022/01/21 14:54:15;;;;;;;8.77;1.50;;;7.00;99.90;;;;;;4820198;29;20042;-84
2022/01/21 14:57:00;;;;;;;8.15;1.02;;;7.10;99.90;;;;;;4828453;29;20442;-86
2022/01/21 14:59:51;;;;;;;9.43;0.85;;;7.10;99.90;;;;;;4846872;29;20053;-85
2022/01/21 15:02:40;;;;;;;10.55;0.88;;;7.00;99.90;;;;;;4839389;29;20057;-84
2022/01/21 15:06:18;;;;;;;11.88;1.20;;;7.00;99.90;;;;;;4851437;29;20038;-84
2022/01/21 15:09:42;;;;;;;10.18;0.95;;;7.00;99.90;;;;;;4836275;29;20041;-85
2022/01/21 15:14:22;;;;;;;10.93;1.45;;;7.00;99.90;;;;;;4846850;29;20063;-81
2022/01/21 15:14:58;;;;;;;8.75;1.27;;;6.90;99.90;;;;;;4862831;29;20041;-81
2022/01/21 15:17:31;;;;;;;10.88;1.15;;;6.90;99.90;;;;;;4847599;29;20033;-80
2022/01/21 15:20:22;;;;;;;9.80;0.77;;;6.90;99.90;;;;;;4809665;29;20054;-81
2022/01/21 15:22:55;;;;;;;10.45;1.83;;;6.90;99.90;;;;;;4861944;29;20045;-82
2022/01/21 15:25:27;;;;;;;9.48;1.55;;;6.90;99.90;;;;;;4829850;29;20313;-81
2022/01/21 15:27:57;;;;;;;;;;;6.90;99.90;;;;;;4831800;29;20060;-81
2022/01/21 15:30:26;;;;;;;16.30;1.10;;;6.90;99.90;;;;;;4846002;29;20219;-81
2022/01/21 15:33:00;;;;;;;9.00;1.27;;;6.80;99.90;;;;;;4850159;29;20059;-80
2022/01/21 15:35:32;;;;;;;8.85;1.00;;;6.90;99.90;;;;;;4822114;29;20477;-80
2022/01/21 15:38:01;;;;;;;10.00;1.13;;;6.80;99.90;;;;;;4846196;29;20046;-80
2022/01/21 15:40:38;;;;;;;12.98;1.50;;;6.80;99.90;;;;;;4848620;29;20026;-82
2022/01/21 15:43:05;;;;;;;11.25;0.90;;;6.80;99.90;;;;;;4845700;29;20381;-84
2022/01/21 15:45:36;;;;;;;11.68;1.00;;;6.80;99.90;;;;;;4848990;29;20603;-81
2022/01/21 15:48:08;;;;;;;12.40;0.90;;;6.80;99.90;;;;;;4861356;29;20025;-81
2022/01/21 15:50:34;;;;;;;7.38;1.13;;;6.80;99.90;;;;;;4846115;29;20037;-81
2022/01/21 15:53:04;;;;;;;8.48;1.30;;;6.80;99.90;;;;;;4846618;29;20514;-81
2022/01/21 15:55:38;;;;;;;11.32;1.10;;;6.70;99.90;;;;;;4817473;29;20041;-80
2022/01/21 15:58:11;;;;;;;9.63;0.95;;;6.70;99.90;;;;;;4832437;29;20501;-80
2022/01/21 16:00:37;;;;;;;8.95;0.98;;;6.70;99.90;;;;;;4833422;29;20033;-82
2022/01/21 16:03:10;;;;;;;5.25;0.70;;;6.60;99.90;;;;;;4821119;29;20049;-81
2022/01/21 16:05:37;;;;;;;7.25;0.80;;;6.60;99.90;;;;;;4830527;29;20037;-80
2022/01/21 16:08:06;;;;;;;15.63;1.27;;;6.60;99.90;;;;;;4832838;29;20048;-85
2022/01/21 16:10:35;;;;;;;13.10;0.93;;;6.50;99.90;;;;;;4854247;29;20045;-80
2022/01/21 16:13:03;;;;;;;13.85;1.48;;;6.50;99.90;;;;;;4865725;29;20028;-81
2022/01/21 16:15:30;;;;;;;8.73;0.85;;;6.50;99.90;;;;;;4870210;29;20032;-84
2022/01/21 16:18:08;;;;;;;10.88;1.42;;;6.50;99.90;;;;;;4851354;29;20037;-82
2022/01/21 16:20:34;;;;;;;10.85;1.27;;;6.50;99.90;;;;;;4855732;29;20393;-82
2022/01/21 16:23:01;;;;;;;7.88;0.60;;;6.50;99.90;;;;;;4864940;29;20513;-81
2022/01/21 16:25:37;;;;;;;8.95;0.95;;;6.50;99.90;;;;;;4881970;29;20025;-80
2022/01/21 16:28:07;;;;;;;11.82;1.05;;;6.50;99.90;;;;;;4882172;29;20040;-80
2022/01/21 16:30:33;;;;;;;9.45;1.00;;;6.50;99.90;;;;;;4865401;29;20047;-84
2022/01/21 16:33:02;;;;;;;10.43;1.05;;;6.50;99.90;;;;;;4865771;29;20037;-81
2022/01/21 16:35:29;;;;;;;11.38;1.00;;;6.50;99.90;;;;;;4882405;29;20516;-80
2022/01/21 16:37:55;;;;;;;15.80;1.80;;;6.40;99.90;;;;;;4853228;29;20044;-80
2022/01/21 16:40:22;;;;;;;16.77;1.58;;;6.40;99.90;;;;;;4847653;29;20032;-81
2022/01/21 16:42:48;;;;;;;12.00;1.58;;;6.40;99.90;;;;;;4882056;29;20405;-82
2022/01/21 16:45:16;;;;;;;17.23;3.03;;;6.40;99.90;;;;;;4865567;29;20036;-81
2022/01/21 16:47:47;;;;;;;13.23;2.03;;;6.40;99.90;;;;;;4864044;29;20025;-80
2022/01/21 16:50:18;;;;;;;10.47;2.00;;;6.50;99.90;;;;;;4869365;29;20493;-80
2022/01/21 16:52:45;;;;;;;16.70;2.38;;;6.40;99.90;;;;;;4834388;29;20056;-82
2022/01/21 16:55:12;;;;;;;9.60;1.65;;;6.40;99.90;;;;;;4870414;29;20401;-81
2022/01/21 16:57:52;;;;;;;14.13;1.17;;;6.40;99.90;;;;;;4881623;29;20036;-85
2022/01/21 17:00:26;;;;;;;12.43;1.55;;;6.40;99.90;;;;;;4855127;29;20036;-79
2022/01/21 17:02:59;;;;;;;9.73;1.55;;;6.40;99.90;;;;;;4863850;29;20397;-83
2022/01/21 17:05:59;;;;;;;7.65;0.80;;;6.40;99.90;;;;;;4883652;29;20033;-86
2022/01/21 17:09:27;;;;;;;;;;;6.40;99.90;;;;;;4838737;29;20426;-85
2022/01/21 17:12:35;;;;;;;12.00;1.25;;;6.40;99.90;;;;;;4830389;29;19927;-80
2022/01/21 17:15:03;;;;;;;12.00;0.90;;;6.40;99.90;;;;;;4784206;29;20522;-81
2022/01/21 17:18:36;;;;;;;10.48;1.52;;;6.40;99.90;;;;;;4811806;29;20050;-81
2022/01/21 17:21:42;;;;;;;15.52;2.15;;;6.40;99.90;;;;;;4796794;29;20563;-83
2022/01/21 17:24:52;;;;;;;16.92;2.95;;;6.40;99.90;;;;;;4794577;29;20037;-82
2022/01/21 17:27:38;;;;;;;10.75;2.15;;;6.40;99.90;;;;;;4807677;29;20552;-81
2022/01/21 17:30:18;;;;;;;13.55;2.72;;;6.40;99.90;;;;;;4781908;29;20058;-84
2022/01/21 17:40:03;;;;;;;11.82;4.43;;;6.30;99.90;;;;;;4809955;29;20057;-80
2022/01/21 17:42:50;;;;;;;11.70;3.22;;;6.30;99.90;;;;;;4813080;29;20041;-80
2022/01/21 17:45:42;;;;;;;9.98;2.90;;;6.30;99.90;;;;;;4866321;29;20037;-82
2022/01/21 17:48:11;;;;;;;20.42;4.22;;;6.20;99.90;;;;;;4833035;29;20611;-80
2022/01/21 17:50:47;;;;;;;14.05;3.13;;;6.20;99.90;;;;;;4880096;29;20485;-81
2022/01/21 17:53:24;;;;;;;19.10;3.47;;;6.20;99.90;;;;;;4857222;29;20041;-82
2022/01/21 17:55:57;;;;;;;13.32;2.67;;;6.20;99.90;;;;;;4842265;29;20513;-79
2022/01/21 17:58:24;;;;;;;10.93;1.90;;;6.20;99.90;;;;;;4845815;29;20037;-79
2022/01/21 18:01:21;;;;;;;7.78;1.88;;;6.20;99.90;;;;;;4878906;29;20107;-80
2022/01/21 18:04:07;;;;;;;19.73;2.88;;;6.20;99.90;;;;;;4843806;29;20056;-79
2022/01/21 18:06:35;;;;;;;14.23;2.10;;;6.20;99.90;;;;;;4879869;29;20036;-78
2022/01/21 18:09:17;;;;;;;11.55;1.65;;;6.20;99.90;;;;;;4880938;29;20035;-80
2022/01/21 18:11:52;;;;;;;11.93;3.10;;;6.10;99.90;;;;;;4862705;29;20053;-78
2022/01/21 18:14:25;;;;;;;13.25;2.78;;;6.10;99.90;;;;;;4860848;29;20045;-82
2022/01/21 18:17:41;;;;;;;;;;;;;;;;;;;;;
2022/01/21 18:21:27;;;;;;;;;;;;;;;;;;;;;
2022/01/21 18:25:02;;;;;;;12.70;2.10;;;6.10;99.90;;;;;;4806813;29;20053;-83
2022/01/21 18:32:22;;;;;;;;;;;;;;;;;;;;;
2022/01/21 18:34:53;;;;;;;14.63;2.10;;;6.10;99.90;;;;;;4862995;29;20045;-82
2022/01/21 18:37:51;;;;;;;9.63;1.50;;;6.10;99.90;;;;;;4883130;29;20103;-84
2022/01/21 18:40:29;;;;;;;11.23;1.90;;;6.10;99.90;;;;;;4863804;29;20037;-84
2022/01/21 18:43:40;;;;;;;12.15;2.10;;;6.10;99.90;;;;;;4869151;29;20044;-85
2022/01/21 18:46:24;;;;;;;11.63;1.73;;;6.10;99.90;;;;;;4851638;29;20048;-84
2022/01/21 18:49:37;;;;;;;11.50;1.42;;;6.10;99.90;;;;;;4857226;29;20055;-84
2022/01/21 18:52:49;;;;;;;11.18;1.63;;;6.10;99.90;;;;;;4864819;29;20053;-90
2022/01/21 18:55:21;;;;;;;14.52;2.15;;;6.10;99.90;;;;;;4869983;29;20049;-80
2022/01/21 18:57:53;;;;;;;13.30;2.00;;;6.10;99.90;;;;;;4850353;29;20048;-81
2022/01/21 19:00:26;;;;;;;16.38;3.97;;;6.10;99.90;;;;;;4867855;29;20041;-87
2022/01/21 19:04:03;;;;;;;22.88;3.72;;;6.10;99.90;;;;;;4851004;29;20060;-85
2022/01/21 19:06:41;;;;;;;9.65;1.80;;;6.10;99.90;;;;;;4836058;29;20056;-79
2022/01/21 19:09:16;;;;;;;10.68;1.52;;;6.10;99.90;;;;;;4885276;29;20048;-80
2022/01/21 19:11:47;;;;;;;15.35;2.08;;;6.10;99.90;;;;;;4878675;29;20041;-80